sensor_id;sensor_type;location;lat;lon;timestamp;P1;durP1;ratioP1;P2;durP2;ratioP2
62030;SDS011;62035;52.094;5.112;2022-10-15T00:00:21;39.35;;;21.92;;
62030;SDS011;62035;52.094;5.112;2022-10-15T00:02:48;39.25;;;22.13;;
62030;SDS011;62035;52.094;5.112;2022-10-15T00:05:17;39.50;;;23.08;;
62030;SDS011;62035;52.094;5.112;2022-10-15T00:07:45;38.50;;;23.88;;
62030;SDS011;62035;52.094;5.112;2022-10-15T00:10:13;40.20;;;23.80;;
62030;SDS011;62035;52.094;5.112;2022-10-15T00:12:42;39.10;;;23.15;;
62030;SDS011;62035;52.094;5.112;2022-10-15T00:15:10;36.22;;;21.95;;
62030;SDS011;62035;52.094;5.112;2022-10-15T00:17:38;45.20;;;25.73;;
62030;SDS011;62035;52.094;5.112;2022-10-15T00:20:06;43.72;;;24.58;;
62030;SDS011;62035;52.094;5.112;2022-10-15T00:22:37;37.30;;;23.73;;
62030;SDS011;62035;52.094;5.112;2022-10-15T00:25:05;41.58;;;24.02;;
62030;SDS011;62035;52.094;5.112;2022-10-15T00:27:34;43.88;;;24.30;;
62030;SDS011;62035;52.094;5.112;2022-10-15T00:30:03;44.78;;;24.50;;
62030;SDS011;62035;52.094;5.112;2022-10-15T00:32:33;39.42;;;22.50;;
62030;SDS011;62035;52.094;5.112;2022-10-15T00:35:00;37.40;;;22.92;;
62030;SDS011;62035;52.094;5.112;2022-10-15T00:37:28;39.72;;;23.95;;
62030;SDS011;62035;52.094;5.112;2022-10-15T00:39:57;44.10;;;23.58;;
62030;SDS011;62035;52.094;5.112;2022-10-15T00:42:25;43.45;;;24.30;;
62030;SDS011;62035;52.094;5.112;2022-10-15T00:44:53;46.38;;;24.40;;
62030;SDS011;62035;52.094;5.112;2022-10-15T00:47:26;43.53;;;26.08;;
62030;SDS011;62035;52.094;5.112;2022-10-15T00:50:02;41.63;;;23.58;;
62030;SDS011;62035;52.094;5.112;2022-10-15T00:52:35;43.15;;;25.58;;
62030;SDS011;62035;52.094;5.112;2022-10-15T00:55:11;51.08;;;27.77;;
62030;SDS011;62035;52.094;5.112;2022-10-15T00:57:43;56.45;;;29.38;;
62030;SDS011;62035;52.094;5.112;2022-10-15T01:00:16;51.65;;;27.80;;
62030;SDS011;62035;52.094;5.112;2022-10-15T01:02:45;45.63;;;25.83;;
62030;SDS011;62035;52.094;5.112;2022-10-15T01:05:14;47.65;;;26.83;;
62030;SDS011;62035;52.094;5.112;2022-10-15T01:07:44;44.80;;;26.00;;
62030;SDS011;62035;52.094;5.112;2022-10-15T01:10:13;51.95;;;27.73;;
62030;SDS011;62035;52.094;5.112;2022-10-15T01:12:44;49.53;;;26.88;;
62030;SDS011;62035;52.094;5.112;2022-10-15T01:15:24;50.03;;;27.98;;
62030;SDS011;62035;52.094;5.112;2022-10-15T01:18:01;48.33;;;28.15;;
62030;SDS011;62035;52.094;5.112;2022-10-15T01:20:41;50.53;;;27.52;;
62030;SDS011;62035;52.094;5.112;2022-10-15T01:29:58;51.30;;;27.25;;
62030;SDS011;62035;52.094;5.112;2022-10-15T01:32:57;50.15;;;26.10;;
62030;SDS011;62035;52.094;5.112;2022-10-15T01:35:40;52.15;;;27.27;;
62030;SDS011;62035;52.094;5.112;2022-10-15T01:38:21;50.95;;;27.65;;
62030;SDS011;62035;52.094;5.112;2022-10-15T01:41:06;52.33;;;26.35;;
62030;SDS011;62035;52.094;5.112;2022-10-15T01:43:42;52.97;;;27.48;;
62030;SDS011;62035;52.094;5.112;2022-10-15T01:46:17;48.72;;;26.50;;
62030;SDS011;62035;52.094;5.112;2022-10-15T01:48:53;55.92;;;28.92;;
62030;SDS011;62035;52.094;5.112;2022-10-15T01:51:25;52.50;;;29.15;;
62030;SDS011;62035;52.094;5.112;2022-10-15T01:53:56;57.65;;;29.40;;
62030;SDS011;62035;52.094;5.112;2022-10-15T01:56:26;60.28;;;31.35;;
62030;SDS011;62035;52.094;5.112;2022-10-15T01:58:55;55.90;;;29.95;;
62030;SDS011;62035;52.094;5.112;2022-10-15T02:01:26;52.72;;;28.75;;
62030;SDS011;62035;52.094;5.112;2022-10-15T02:03:54;54.67;;;28.75;;
62030;SDS011;62035;52.094;5.112;2022-10-15T02:06:22;48.00;;;27.15;;
62030;SDS011;62035;52.094;5.112;2022-10-15T02:08:59;45.67;;;27.13;;
62030;SDS011;62035;52.094;5.112;2022-10-15T02:11:42;47.17;;;27.40;;
62030;SDS011;62035;52.094;5.112;2022-10-15T02:14:23;51.47;;;26.60;;
62030;SDS011;62035;52.094;5.112;2022-10-15T02:17:04;48.75;;;25.83;;
62030;SDS011;62035;52.094;5.112;2022-10-15T02:19:38;53.28;;;24.73;;
62030;SDS011;62035;52.094;5.112;2022-10-15T02:22:13;47.55;;;25.58;;
62030;SDS011;62035;52.094;5.112;2022-10-15T02:24:46;43.70;;;25.23;;
62030;SDS011;62035;52.094;5.112;2022-10-15T02:27:22;43.42;;;25.33;;
62030;SDS011;62035;52.094;5.112;2022-10-15T02:29:53;46.60;;;26.23;;
62030;SDS011;62035;52.094;5.112;2022-10-15T02:32:26;45.60;;;25.90;;
62030;SDS011;62035;52.094;5.112;2022-10-15T02:34:57;44.28;;;24.05;;
62030;SDS011;62035;52.094;5.112;2022-10-15T02:37:27;50.10;;;24.75;;
62030;SDS011;62035;52.094;5.112;2022-10-15T02:39:57;43.50;;;25.90;;
62030;SDS011;62035;52.094;5.112;2022-10-15T02:42:24;51.50;;;25.15;;
62030;SDS011;62035;52.094;5.112;2022-10-15T02:44:53;44.90;;;25.25;;
62030;SDS011;62035;52.094;5.112;2022-10-15T02:47:20;41.55;;;24.33;;
62030;SDS011;62035;52.094;5.112;2022-10-15T02:49:49;47.08;;;25.02;;
62030;SDS011;62035;52.094;5.112;2022-10-15T02:52:17;41.10;;;23.30;;
62030;SDS011;62035;52.094;5.112;2022-10-15T02:54:44;43.80;;;25.20;;
62030;SDS011;62035;52.094;5.112;2022-10-15T02:57:12;52.03;;;25.27;;
62030;SDS011;62035;52.094;5.112;2022-10-15T02:59:39;42.08;;;25.33;;
62030;SDS011;62035;52.094;5.112;2022-10-15T03:02:07;43.72;;;24.75;;
62030;SDS011;62035;52.094;5.112;2022-10-15T03:04:36;49.92;;;26.02;;
62030;SDS011;62035;52.094;5.112;2022-10-15T03:07:05;42.75;;;25.27;;
62030;SDS011;62035;52.094;5.112;2022-10-15T03:09:33;42.15;;;24.33;;
62030;SDS011;62035;52.094;5.112;2022-10-15T03:12:00;40.67;;;25.25;;
62030;SDS011;62035;52.094;5.112;2022-10-15T03:14:28;42.25;;;24.15;;
62030;SDS011;62035;52.094;5.112;2022-10-15T03:16:55;44.13;;;23.67;;
62030;SDS011;62035;52.094;5.112;2022-10-15T03:19:23;43.67;;;24.70;;
62030;SDS011;62035;52.094;5.112;2022-10-15T03:21:51;37.97;;;23.73;;
62030;SDS011;62035;52.094;5.112;2022-10-15T03:24:19;39.60;;;25.35;;
62030;SDS011;62035;52.094;5.112;2022-10-15T03:26:47;45.92;;;26.23;;
62030;SDS011;62035;52.094;5.112;2022-10-15T03:29:15;40.80;;;24.17;;
62030;SDS011;62035;52.094;5.112;2022-10-15T03:31:42;41.42;;;25.30;;
62030;SDS011;62035;52.094;5.112;2022-10-15T03:34:10;45.25;;;25.15;;
62030;SDS011;62035;52.094;5.112;2022-10-15T03:36:37;42.33;;;24.40;;
62030;SDS011;62035;52.094;5.112;2022-10-15T03:39:05;39.72;;;24.92;;
62030;SDS011;62035;52.094;5.112;2022-10-15T03:41:34;43.15;;;24.95;;
62030;SDS011;62035;52.094;5.112;2022-10-15T03:44:02;42.65;;;25.55;;
62030;SDS011;62035;52.094;5.112;2022-10-15T03:46:32;46.92;;;25.67;;
62030;SDS011;62035;52.094;5.112;2022-10-15T03:49:00;44.85;;;25.15;;
62030;SDS011;62035;52.094;5.112;2022-10-15T03:51:28;51.05;;;26.60;;
62030;SDS011;62035;52.094;5.112;2022-10-15T03:53:55;45.10;;;27.10;;
62030;SDS011;62035;52.094;5.112;2022-10-15T03:56:23;45.95;;;26.10;;
62030;SDS011;62035;52.094;5.112;2022-10-15T03:58:52;46.10;;;27.05;;
62030;SDS011;62035;52.094;5.112;2022-10-15T04:01:20;47.58;;;25.60;;
62030;SDS011;62035;52.094;5.112;2022-10-15T04:03:50;46.20;;;26.63;;
62030;SDS011;62035;52.094;5.112;2022-10-15T04:06:18;43.20;;;26.25;;
62030;SDS011;62035;52.094;5.112;2022-10-15T04:08:46;46.50;;;27.05;;
62030;SDS011;62035;52.094;5.112;2022-10-15T04:11:14;49.70;;;28.60;;
62030;SDS011;62035;52.094;5.112;2022-10-15T04:13:41;54.88;;;28.95;;
62030;SDS011;62035;52.094;5.112;2022-10-15T04:16:10;51.10;;;26.80;;
62030;SDS011;62035;52.094;5.112;2022-10-15T04:18:38;54.25;;;28.23;;
62030;SDS011;62035;52.094;5.112;2022-10-15T04:21:06;47.80;;;27.73;;
62030;SDS011;62035;52.094;5.112;2022-10-15T04:23:33;52.35;;;29.25;;
62030;SDS011;62035;52.094;5.112;2022-10-15T04:26:01;49.15;;;28.55;;
62030;SDS011;62035;52.094;5.112;2022-10-15T04:28:29;50.88;;;28.52;;
62030;SDS011;62035;52.094;5.112;2022-10-15T04:30:58;57.08;;;29.77;;
62030;SDS011;62035;52.094;5.112;2022-10-15T04:33:28;56.95;;;29.17;;
62030;SDS011;62035;52.094;5.112;2022-10-15T04:35:59;53.97;;;28.23;;
62030;SDS011;62035;52.094;5.112;2022-10-15T04:38:28;52.65;;;29.05;;
62030;SDS011;62035;52.094;5.112;2022-10-15T04:41:00;52.38;;;30.13;;
62030;SDS011;62035;52.094;5.112;2022-10-15T04:43:29;52.85;;;29.83;;
62030;SDS011;62035;52.094;5.112;2022-10-15T04:45:57;52.50;;;27.98;;
62030;SDS011;62035;52.094;5.112;2022-10-15T04:48:27;47.40;;;27.83;;
62030;SDS011;62035;52.094;5.112;2022-10-15T04:51:01;44.92;;;26.85;;
62030;SDS011;62035;52.094;5.112;2022-10-15T04:53:30;48.13;;;27.00;;
62030;SDS011;62035;52.094;5.112;2022-10-15T04:55:59;48.75;;;28.38;;
62030;SDS011;62035;52.094;5.112;2022-10-15T04:58:28;48.90;;;28.13;;
62030;SDS011;62035;52.094;5.112;2022-10-15T05:00:58;48.13;;;28.45;;
62030;SDS011;62035;52.094;5.112;2022-10-15T05:03:28;49.03;;;27.38;;
62030;SDS011;62035;52.094;5.112;2022-10-15T05:06:00;48.15;;;27.95;;
62030;SDS011;62035;52.094;5.112;2022-10-15T05:08:29;45.97;;;27.63;;
62030;SDS011;62035;52.094;5.112;2022-10-15T05:10:59;45.80;;;28.50;;
62030;SDS011;62035;52.094;5.112;2022-10-15T05:13:28;50.25;;;28.45;;
62030;SDS011;62035;52.094;5.112;2022-10-15T05:15:56;53.90;;;29.00;;
62030;SDS011;62035;52.094;5.112;2022-10-15T05:18:35;50.13;;;29.63;;
62030;SDS011;62035;52.094;5.112;2022-10-15T05:21:03;67.68;;;31.05;;
62030;SDS011;62035;52.094;5.112;2022-10-15T05:23:31;55.60;;;30.27;;
62030;SDS011;62035;52.094;5.112;2022-10-15T05:26:00;66.47;;;31.20;;
62030;SDS011;62035;52.094;5.112;2022-10-15T05:28:28;74.30;;;32.17;;
62030;SDS011;62035;52.094;5.112;2022-10-15T05:31:01;69.35;;;31.85;;
62030;SDS011;62035;52.094;5.112;2022-10-15T05:33:31;73.72;;;33.30;;
62030;SDS011;62035;52.094;5.112;2022-10-15T05:36:08;68.40;;;33.00;;
62030;SDS011;62035;52.094;5.112;2022-10-15T05:38:38;72.60;;;32.97;;
62030;SDS011;62035;52.094;5.112;2022-10-15T05:41:06;75.05;;;34.17;;
62030;SDS011;62035;52.094;5.112;2022-10-15T05:43:33;76.80;;;35.88;;
62030;SDS011;62035;52.094;5.112;2022-10-15T05:46:01;77.60;;;34.25;;
62030;SDS011;62035;52.094;5.112;2022-10-15T05:48:29;74.18;;;35.55;;
62030;SDS011;62035;52.094;5.112;2022-10-15T05:50:59;81.40;;;34.05;;
62030;SDS011;62035;52.094;5.112;2022-10-15T05:53:29;72.93;;;33.83;;
62030;SDS011;62035;52.094;5.112;2022-10-15T05:55:57;71.68;;;33.50;;
62030;SDS011;62035;52.094;5.112;2022-10-15T05:58:25;80.55;;;34.05;;
62030;SDS011;62035;52.094;5.112;2022-10-15T06:00:55;83.30;;;36.33;;
62030;SDS011;62035;52.094;5.112;2022-10-15T06:03:24;89.07;;;36.78;;
62030;SDS011;62035;52.094;5.112;2022-10-15T06:05:53;93.03;;;39.78;;
62030;SDS011;62035;52.094;5.112;2022-10-15T06:08:21;88.07;;;36.35;;
62030;SDS011;62035;52.094;5.112;2022-10-15T06:10:51;89.55;;;36.92;;
62030;SDS011;62035;52.094;5.112;2022-10-15T06:13:18;88.47;;;35.63;;
62030;SDS011;62035;52.094;5.112;2022-10-15T06:15:46;92.75;;;37.90;;
62030;SDS011;62035;52.094;5.112;2022-10-15T06:18:14;93.63;;;37.20;;
62030;SDS011;62035;52.094;5.112;2022-10-15T06:20:41;82.28;;;35.70;;
62030;SDS011;62035;52.094;5.112;2022-10-15T06:23:10;91.22;;;36.30;;
62030;SDS011;62035;52.094;5.112;2022-10-15T06:25:38;84.30;;;35.80;;
62030;SDS011;62035;52.094;5.112;2022-10-15T06:28:07;82.80;;;36.03;;
62030;SDS011;62035;52.094;5.112;2022-10-15T06:30:35;84.50;;;34.88;;
62030;SDS011;62035;52.094;5.112;2022-10-15T06:33:02;72.88;;;33.53;;
62030;SDS011;62035;52.094;5.112;2022-10-15T06:35:30;80.25;;;34.55;;
62030;SDS011;62035;52.094;5.112;2022-10-15T06:38:00;79.00;;;34.58;;
62030;SDS011;62035;52.094;5.112;2022-10-15T06:40:28;75.68;;;32.88;;
62030;SDS011;62035;52.094;5.112;2022-10-15T06:43:01;74.45;;;33.67;;
62030;SDS011;62035;52.094;5.112;2022-10-15T06:45:32;79.57;;;33.38;;
62030;SDS011;62035;52.094;5.112;2022-10-15T06:48:01;73.60;;;32.78;;
62030;SDS011;62035;52.094;5.112;2022-10-15T06:50:30;78.10;;;32.80;;
62030;SDS011;62035;52.094;5.112;2022-10-15T06:52:58;79.15;;;34.13;;
62030;SDS011;62035;52.094;5.112;2022-10-15T06:55:25;80.13;;;32.97;;
62030;SDS011;62035;52.094;5.112;2022-10-15T06:57:54;90.07;;;35.55;;
62030;SDS011;62035;52.094;5.112;2022-10-15T07:00:22;84.47;;;34.35;;
62030;SDS011;62035;52.094;5.112;2022-10-15T07:03:02;84.65;;;33.83;;
62030;SDS011;62035;52.094;5.112;2022-10-15T07:05:31;76.85;;;32.47;;
62030;SDS011;62035;52.094;5.112;2022-10-15T07:08:00;78.30;;;32.85;;
62030;SDS011;62035;52.094;5.112;2022-10-15T07:10:30;71.30;;;31.98;;
62030;SDS011;62035;52.094;5.112;2022-10-15T07:13:07;71.90;;;32.20;;
62030;SDS011;62035;52.094;5.112;2022-10-15T07:15:36;72.25;;;31.67;;
62030;SDS011;62035;52.094;5.112;2022-10-15T07:18:05;68.25;;;29.40;;
62030;SDS011;62035;52.094;5.112;2022-10-15T07:20:32;67.68;;;30.17;;
62030;SDS011;62035;52.094;5.112;2022-10-15T07:23:00;65.20;;;30.27;;
62030;SDS011;62035;52.094;5.112;2022-10-15T07:25:29;65.07;;;30.38;;
62030;SDS011;62035;52.094;5.112;2022-10-15T07:27:57;60.90;;;28.92;;
62030;SDS011;62035;52.094;5.112;2022-10-15T07:30:25;61.65;;;28.38;;
62030;SDS011;62035;52.094;5.112;2022-10-15T07:32:54;53.45;;;26.52;;
62030;SDS011;62035;52.094;5.112;2022-10-15T07:35:23;51.53;;;25.75;;
62030;SDS011;62035;52.094;5.112;2022-10-15T07:37:52;51.80;;;24.58;;
62030;SDS011;62035;52.094;5.112;2022-10-15T07:40:20;49.30;;;23.83;;
62030;SDS011;62035;52.094;5.112;2022-10-15T07:42:51;46.53;;;22.98;;
62030;SDS011;62035;52.094;5.112;2022-10-15T07:45:19;40.40;;;21.92;;
62030;SDS011;62035;52.094;5.112;2022-10-15T07:47:47;40.67;;;21.60;;
62030;SDS011;62035;52.094;5.112;2022-10-15T07:50:15;37.33;;;19.92;;
62030;SDS011;62035;52.094;5.112;2022-10-15T07:52:45;40.70;;;20.40;;
62030;SDS011;62035;52.094;5.112;2022-10-15T07:55:13;34.47;;;20.50;;
62030;SDS011;62035;52.094;5.112;2022-10-15T07:57:41;34.90;;;19.42;;
62030;SDS011;62035;52.094;5.112;2022-10-15T08:00:09;32.20;;;18.92;;
62030;SDS011;62035;52.094;5.112;2022-10-15T08:02:38;32.03;;;19.42;;
62030;SDS011;62035;52.094;5.112;2022-10-15T08:05:06;31.67;;;18.60;;
62030;SDS011;62035;52.094;5.112;2022-10-15T08:07:34;31.92;;;17.42;;
62030;SDS011;62035;52.094;5.112;2022-10-15T08:10:04;31.67;;;16.92;;
62030;SDS011;62035;52.094;5.112;2022-10-15T08:12:33;26.40;;;16.58;;
62030;SDS011;62035;52.094;5.112;2022-10-15T08:15:00;32.42;;;17.25;;
62030;SDS011;62035;52.094;5.112;2022-10-15T08:17:28;34.28;;;18.52;;
62030;SDS011;62035;52.094;5.112;2022-10-15T08:19:57;28.73;;;16.95;;
62030;SDS011;62035;52.094;5.112;2022-10-15T08:22:24;31.08;;;17.42;;
62030;SDS011;62035;52.094;5.112;2022-10-15T08:24:52;28.92;;;17.58;;
62030;SDS011;62035;52.094;5.112;2022-10-15T08:27:21;31.00;;;17.10;;
62030;SDS011;62035;52.094;5.112;2022-10-15T08:29:49;27.25;;;16.30;;
62030;SDS011;62035;52.094;5.112;2022-10-15T08:32:16;27.52;;;16.23;;
62030;SDS011;62035;52.094;5.112;2022-10-15T08:34:44;24.63;;;15.10;;
62030;SDS011;62035;52.094;5.112;2022-10-15T08:37:12;24.15;;;15.25;;
62030;SDS011;62035;52.094;5.112;2022-10-15T08:39:39;23.83;;;15.23;;
62030;SDS011;62035;52.094;5.112;2022-10-15T08:42:11;24.75;;;16.08;;
62030;SDS011;62035;52.094;5.112;2022-10-15T08:44:49;24.48;;;14.68;;
62030;SDS011;62035;52.094;5.112;2022-10-15T08:47:25;22.75;;;14.43;;
62030;SDS011;62035;52.094;5.112;2022-10-15T08:50:02;20.75;;;13.73;;
62030;SDS011;62035;52.094;5.112;2022-10-15T08:52:41;23.67;;;14.63;;
62030;SDS011;62035;52.094;5.112;2022-10-15T08:55:13;24.70;;;14.48;;
62030;SDS011;62035;52.094;5.112;2022-10-15T08:57:45;21.20;;;14.82;;
62030;SDS011;62035;52.094;5.112;2022-10-15T09:00:22;22.38;;;13.85;;
62030;SDS011;62035;52.094;5.112;2022-10-15T09:02:56;22.85;;;13.80;;
62030;SDS011;62035;52.094;5.112;2022-10-15T09:05:33;21.75;;;12.95;;
62030;SDS011;62035;52.094;5.112;2022-10-15T09:10:51;19.55;;;12.48;;
62030;SDS011;62035;52.094;5.112;2022-10-15T09:13:28;19.25;;;12.13;;
62030;SDS011;62035;52.094;5.112;2022-10-15T09:16:03;17.05;;;11.00;;
62030;SDS011;62035;52.094;5.112;2022-10-15T09:18:40;20.05;;;11.07;;
62030;SDS011;62035;52.094;5.112;2022-10-15T09:21:12;18.17;;;10.55;;
62030;SDS011;62035;52.094;5.112;2022-10-15T09:23:41;15.63;;;10.07;;
62030;SDS011;62035;52.094;5.112;2022-10-15T09:26:15;18.95;;;10.18;;
62030;SDS011;62035;52.094;5.112;2022-10-15T09:28:55;16.95;;;10.85;;
62030;SDS011;62035;52.094;5.112;2022-10-15T09:31:39;27.88;;;10.52;;
62030;SDS011;62035;52.094;5.112;2022-10-15T09:34:17;14.43;;;9.68;;
62030;SDS011;62035;52.094;5.112;2022-10-15T09:36:53;16.90;;;8.85;;
62030;SDS011;62035;52.094;5.112;2022-10-15T09:39:31;16.52;;;9.63;;
62030;SDS011;62035;52.094;5.112;2022-10-15T09:42:18;18.35;;;10.23;;
62030;SDS011;62035;52.094;5.112;2022-10-15T09:44:56;16.05;;;10.77;;
62030;SDS011;62035;52.094;5.112;2022-10-15T09:47:31;19.05;;;11.15;;
62030;SDS011;62035;52.094;5.112;2022-10-15T09:50:02;19.95;;;11.63;;
62030;SDS011;62035;52.094;5.112;2022-10-15T09:52:40;17.10;;;10.80;;
62030;SDS011;62035;52.094;5.112;2022-10-15T09:55:29;21.83;;;12.85;;
62030;SDS011;62035;52.094;5.112;2022-10-15T09:58:12;21.65;;;12.18;;
62030;SDS011;62035;52.094;5.112;2022-10-15T10:00:51;25.38;;;14.13;;
62030;SDS011;62035;52.094;5.112;2022-10-15T10:03:26;20.80;;;12.52;;
62030;SDS011;62035;52.094;5.112;2022-10-15T10:06:00;23.77;;;12.45;;
62030;SDS011;62035;52.094;5.112;2022-10-15T10:08:33;23.23;;;13.57;;
62030;SDS011;62035;52.094;5.112;2022-10-15T10:11:05;25.80;;;13.18;;
62030;SDS011;62035;52.094;5.112;2022-10-15T10:13:39;22.45;;;13.77;;
62030;SDS011;62035;52.094;5.112;2022-10-15T10:16:16;24.77;;;14.27;;
62030;SDS011;62035;52.094;5.112;2022-10-15T10:19:00;25.88;;;13.75;;
62030;SDS011;62035;52.094;5.112;2022-10-15T10:21:32;27.60;;;14.10;;
62030;SDS011;62035;52.094;5.112;2022-10-15T10:26:55;25.98;;;14.68;;
62030;SDS011;62035;52.094;5.112;2022-10-15T10:29:24;22.15;;;13.30;;
62030;SDS011;62035;52.094;5.112;2022-10-15T10:31:52;23.13;;;13.90;;
62030;SDS011;62035;52.094;5.112;2022-10-15T10:34:23;25.52;;;14.82;;
62030;SDS011;62035;52.094;5.112;2022-10-15T10:36:55;25.65;;;14.27;;
62030;SDS011;62035;52.094;5.112;2022-10-15T10:39:24;26.10;;;14.18;;
62030;SDS011;62035;52.094;5.112;2022-10-15T10:44:27;23.25;;;12.55;;
62030;SDS011;62035;52.094;5.112;2022-10-15T10:47:11;23.80;;;13.95;;
62030;SDS011;62035;52.094;5.112;2022-10-15T10:49:44;21.63;;;12.00;;
62030;SDS011;62035;52.094;5.112;2022-10-15T10:52:18;17.85;;;11.20;;
62030;SDS011;62035;52.094;5.112;2022-10-15T10:54:51;18.05;;;11.05;;
62030;SDS011;62035;52.094;5.112;2022-10-15T10:57:28;18.10;;;11.20;;
62030;SDS011;62035;52.094;5.112;2022-10-15T11:00:09;20.93;;;12.33;;
62030;SDS011;62035;52.094;5.112;2022-10-15T11:02:44;22.45;;;12.05;;
62030;SDS011;62035;52.094;5.112;2022-10-15T11:05:13;19.95;;;12.07;;
62030;SDS011;62035;52.094;5.112;2022-10-15T11:07:52;19.80;;;11.65;;
62030;SDS011;62035;52.094;5.112;2022-10-15T11:10:36;19.33;;;11.15;;
62030;SDS011;62035;52.094;5.112;2022-10-15T11:13:19;19.83;;;10.77;;
62030;SDS011;62035;52.094;5.112;2022-10-15T11:16:02;15.77;;;9.32;;
62030;SDS011;62035;52.094;5.112;2022-10-15T11:18:46;17.15;;;10.13;;
62030;SDS011;62035;52.094;5.112;2022-10-15T11:21:29;16.23;;;9.82;;
62030;SDS011;62035;52.094;5.112;2022-10-15T11:24:19;16.85;;;9.88;;
62030;SDS011;62035;52.094;5.112;2022-10-15T11:27:01;15.13;;;9.70;;
62030;SDS011;62035;52.094;5.112;2022-10-15T11:29:46;16.35;;;9.60;;
62030;SDS011;62035;52.094;5.112;2022-10-15T11:32:32;18.45;;;10.30;;
62030;SDS011;62035;52.094;5.112;2022-10-15T11:35:20;17.40;;;10.35;;
62030;SDS011;62035;52.094;5.112;2022-10-15T11:38:07;13.90;;;9.50;;
62030;SDS011;62035;52.094;5.112;2022-10-15T11:40:51;14.38;;;9.18;;
62030;SDS011;62035;52.094;5.112;2022-10-15T11:43:41;16.02;;;9.43;;
62030;SDS011;62035;52.094;5.112;2022-10-15T11:46:29;13.65;;;8.45;;
62030;SDS011;62035;52.094;5.112;2022-10-15T11:49:18;14.60;;;8.98;;
62030;SDS011;62035;52.094;5.112;2022-10-15T11:55:09;12.00;;;8.25;;
62030;SDS011;62035;52.094;5.112;2022-10-15T11:57:43;11.85;;;8.30;;
62030;SDS011;62035;52.094;5.112;2022-10-15T12:00:18;14.18;;;8.27;;
62030;SDS011;62035;52.094;5.112;2022-10-15T12:03:01;11.95;;;7.47;;
62030;SDS011;62035;52.094;5.112;2022-10-15T12:05:40;11.68;;;7.35;;
62030;SDS011;62035;52.094;5.112;2022-10-15T12:08:15;12.20;;;8.15;;
62030;SDS011;62035;52.094;5.112;2022-10-15T12:10:52;12.10;;;8.13;;
62030;SDS011;62035;52.094;5.112;2022-10-15T12:13:35;11.93;;;7.57;;
62030;SDS011;62035;52.094;5.112;2022-10-15T12:16:14;10.13;;;6.85;;
62030;SDS011;62035;52.094;5.112;2022-10-15T12:18:54;11.27;;;7.00;;
62030;SDS011;62035;52.094;5.112;2022-10-15T12:21:38;10.73;;;7.00;;
62030;SDS011;62035;52.094;5.112;2022-10-15T12:27:21;10.57;;;7.82;;
62030;SDS011;62035;52.094;5.112;2022-10-15T12:30:18;11.50;;;7.78;;
62030;SDS011;62035;52.094;5.112;2022-10-15T12:32:52;9.93;;;7.38;;
62030;SDS011;62035;52.094;5.112;2022-10-15T12:35:29;10.95;;;7.65;;
62030;SDS011;62035;52.094;5.112;2022-10-15T12:38:09;11.23;;;7.47;;
62030;SDS011;62035;52.094;5.112;2022-10-15T12:40:45;11.07;;;7.90;;
62030;SDS011;62035;52.094;5.112;2022-10-15T12:43:28;10.48;;;7.45;;
62030;SDS011;62035;52.094;5.112;2022-10-15T12:46:00;10.45;;;7.88;;
62030;SDS011;62035;52.094;5.112;2022-10-15T12:48:32;13.05;;;8.50;;
62030;SDS011;62035;52.094;5.112;2022-10-15T13:00:39;14.75;;;8.13;;
62030;SDS011;62035;52.094;5.112;2022-10-15T13:03:16;12.65;;;8.73;;
62030;SDS011;62035;52.094;5.112;2022-10-15T13:05:51;13.35;;;8.50;;
62030;SDS011;62035;52.094;5.112;2022-10-15T13:08:21;12.85;;;8.73;;
62030;SDS011;62035;52.094;5.112;2022-10-15T13:10:52;13.18;;;8.10;;
62030;SDS011;62035;52.094;5.112;2022-10-15T13:13:24;11.88;;;8.43;;
62030;SDS011;62035;52.094;5.112;2022-10-15T13:15:58;12.02;;;7.90;;
62030;SDS011;62035;52.094;5.112;2022-10-15T13:18:28;14.63;;;7.95;;
62030;SDS011;62035;52.094;5.112;2022-10-15T13:20:57;10.35;;;7.70;;
62030;SDS011;62035;52.094;5.112;2022-10-15T13:23:27;12.20;;;8.38;;
62030;SDS011;62035;52.094;5.112;2022-10-15T13:26:10;9.57;;;7.70;;
62030;SDS011;62035;52.094;5.112;2022-10-15T13:28:43;10.40;;;7.90;;
62030;SDS011;62035;52.094;5.112;2022-10-15T13:31:16;13.90;;;8.32;;
62030;SDS011;62035;52.094;5.112;2022-10-15T13:33:51;9.98;;;7.85;;
62030;SDS011;62035;52.094;5.112;2022-10-15T13:36:23;10.23;;;7.25;;
62030;SDS011;62035;52.094;5.112;2022-10-15T13:41:26;7.95;;;6.47;;
62030;SDS011;62035;52.094;5.112;2022-10-15T13:43:57;9.35;;;6.63;;
62030;SDS011;62035;52.094;5.112;2022-10-15T13:46:28;6.97;;;5.35;;
62030;SDS011;62035;52.094;5.112;2022-10-15T13:48:59;8.70;;;5.53;;
62030;SDS011;62035;52.094;5.112;2022-10-15T13:51:33;9.43;;;5.22;;
62030;SDS011;62035;52.094;5.112;2022-10-15T13:54:07;7.25;;;5.25;;
62030;SDS011;62035;52.094;5.112;2022-10-15T13:56:40;6.13;;;4.60;;
62030;SDS011;62035;52.094;5.112;2022-10-15T13:59:14;5.47;;;4.00;;
62030;SDS011;62035;52.094;5.112;2022-10-15T14:01:46;8.23;;;4.85;;
62030;SDS011;62035;52.094;5.112;2022-10-15T14:04:19;6.07;;;4.50;;
62030;SDS011;62035;52.094;5.112;2022-10-15T14:06:52;7.10;;;3.93;;
62030;SDS011;62035;52.094;5.112;2022-10-15T14:09:28;6.28;;;3.78;;
62030;SDS011;62035;52.094;5.112;2022-10-15T14:11:59;4.55;;;3.30;;
62030;SDS011;62035;52.094;5.112;2022-10-15T14:14:28;6.32;;;3.45;;
62030;SDS011;62035;52.094;5.112;2022-10-15T14:17:02;5.60;;;3.30;;
62030;SDS011;62035;52.094;5.112;2022-10-15T14:19:34;5.97;;;3.60;;
62030;SDS011;62035;52.094;5.112;2022-10-15T14:22:04;5.25;;;3.47;;
62030;SDS011;62035;52.094;5.112;2022-10-15T14:24:33;5.85;;;2.88;;
62030;SDS011;62035;52.094;5.112;2022-10-15T14:27:05;7.85;;;2.92;;
62030;SDS011;62035;52.094;5.112;2022-10-15T14:29:40;5.35;;;3.00;;
62030;SDS011;62035;52.094;5.112;2022-10-15T14:32:19;3.97;;;2.85;;
62030;SDS011;62035;52.094;5.112;2022-10-15T14:34:51;7.45;;;3.38;;
62030;SDS011;62035;52.094;5.112;2022-10-15T14:37:39;3.70;;;2.67;;
62030;SDS011;62035;52.094;5.112;2022-10-15T14:40:11;5.00;;;3.10;;
62030;SDS011;62035;52.094;5.112;2022-10-15T14:42:44;7.13;;;3.10;;
62030;SDS011;62035;52.094;5.112;2022-10-15T14:45:18;5.35;;;2.20;;
62030;SDS011;62035;52.094;5.112;2022-10-15T14:47:52;4.35;;;1.60;;
62030;SDS011;62035;52.094;5.112;2022-10-15T14:50:23;7.57;;;1.70;;
62030;SDS011;62035;52.094;5.112;2022-10-15T14:52:58;5.15;;;1.60;;
62030;SDS011;62035;52.094;5.112;2022-10-15T14:55:32;4.70;;;1.30;;
62030;SDS011;62035;52.094;5.112;2022-10-15T14:58:06;3.65;;;1.42;;
62030;SDS011;62035;52.094;5.112;2022-10-15T15:00:38;5.13;;;1.40;;
62030;SDS011;62035;52.094;5.112;2022-10-15T15:03:12;6.70;;;1.75;;
62030;SDS011;62035;52.094;5.112;2022-10-15T15:05:44;6.07;;;1.20;;
62030;SDS011;62035;52.094;5.112;2022-10-15T15:08:13;5.63;;;1.42;;
62030;SDS011;62035;52.094;5.112;2022-10-15T15:10:42;3.90;;;1.40;;
62030;SDS011;62035;52.094;5.112;2022-10-15T15:13:12;4.65;;;1.33;;
62030;SDS011;62035;52.094;5.112;2022-10-15T15:15:45;2.08;;;1.20;;
62030;SDS011;62035;52.094;5.112;2022-10-15T15:18:14;3.90;;;1.75;;
62030;SDS011;62035;52.094;5.112;2022-10-15T15:20:43;4.80;;;1.33;;
62030;SDS011;62035;52.094;5.112;2022-10-15T15:23:13;5.07;;;1.55;;
62030;SDS011;62035;52.094;5.112;2022-10-15T15:25:46;10.07;;;1.60;;
62030;SDS011;62035;52.094;5.112;2022-10-15T15:28:15;9.60;;;1.38;;